createdAt,value
2022-11-14T00:01:26.998Z,3.30
2022-11-14T00:03:54.975Z,3.10
2022-11-14T00:06:22.887Z,3.40
2022-11-14T00:08:50.887Z,3.40
2022-11-14T00:11:18.801Z,3.30
2022-11-14T00:13:48.046Z,3.10
2022-11-14T00:16:15.998Z,3.00
2022-11-14T00:18:43.944Z,2.90
2022-11-14T00:21:11.888Z,2.90
2022-11-14T00:23:39.902Z,3.00
2022-11-14T00:26:08.085Z,2.90
2022-11-14T00:28:36.066Z,2.90
2022-11-14T00:31:05.440Z,2.90
2022-11-14T00:33:33.486Z,2.90
2022-11-14T00:36:01.383Z,3.00
2022-11-14T00:38:29.644Z,3.10
2022-11-14T00:40:57.702Z,2.90
2022-11-14T00:43:25.673Z,2.90
2022-11-14T00:45:53.610Z,2.80
2022-11-14T00:48:22.987Z,2.90
2022-11-14T00:50:50.881Z,2.90
2022-11-14T00:53:18.923Z,2.90
2022-11-14T00:55:46.806Z,2.90
2022-11-14T00:58:14.758Z,2.90
2022-11-14T01:00:42.736Z,3.00
2022-11-14T01:03:10.653Z,3.10
2022-11-14T01:05:43.446Z,3.00
2022-11-14T01:08:11.545Z,3.00
2022-11-14T01:10:41.222Z,3.00
2022-11-14T01:13:09.143Z,3.00
2022-11-14T01:15:40.280Z,3.00
2022-11-14T01:18:08.215Z,3.00
2022-11-14T01:20:36.414Z,3.00
2022-11-14T01:23:05.738Z,3.00
2022-11-14T01:25:34.299Z,3.00
2022-11-14T01:28:02.213Z,3.00
2022-11-14T01:30:30.135Z,3.10
2022-11-14T01:32:58.088Z,3.00
2022-11-14T01:35:26.069Z,2.90
2022-11-14T01:37:54.000Z,3.00
2022-11-14T01:40:23.302Z,3.10
2022-11-14T01:43:26.140Z,3.20
2022-11-14T01:45:55.880Z,3.20
2022-11-14T01:48:25.992Z,3.20
2022-11-14T01:50:57.277Z,3.10
2022-11-14T01:53:25.260Z,3.00
2022-11-14T01:55:55.367Z,3.00
2022-11-14T01:58:23.412Z,3.10
2022-11-14T02:00:51.333Z,3.20
2022-11-14T02:03:19.244Z,3.30
2022-11-14T02:05:47.383Z,3.30
2022-11-14T02:08:15.672Z,3.30
2022-11-14T02:10:43.625Z,3.20
2022-11-14T02:13:13.031Z,3.10
2022-11-14T02:15:40.955Z,3.20
2022-11-14T02:18:08.849Z,3.10
2022-11-14T02:20:43.101Z,3.00
2022-11-14T02:23:11.920Z,2.90
2022-11-14T02:25:39.964Z,3.00
2022-11-14T02:28:08.427Z,2.90
2022-11-14T02:30:36.681Z,3.00
2022-11-14T02:33:12.104Z,3.00
2022-11-14T02:35:41.543Z,3.10
2022-11-14T02:38:09.450Z,3.30
2022-11-14T02:40:37.290Z,3.20
2022-11-14T02:43:05.115Z,3.10
2022-11-14T02:45:32.983Z,3.10
2022-11-14T02:48:00.840Z,2.90
2022-11-14T02:50:28.721Z,2.80
2022-11-14T02:52:57.923Z,2.80
2022-11-14T02:55:25.765Z,2.90
2022-11-14T02:57:53.628Z,2.90
2022-11-14T03:00:21.655Z,2.70
2022-11-14T03:02:49.496Z,2.70
2022-11-14T03:05:17.458Z,2.90
2022-11-14T03:07:45.281Z,3.00
2022-11-14T03:10:14.871Z,3.60
2022-11-14T03:12:42.716Z,3.40
2022-11-14T03:15:11.408Z,3.20
2022-11-14T03:17:39.266Z,3.40
2022-11-14T03:20:08.395Z,3.10
2022-11-14T03:22:36.244Z,2.90
2022-11-14T03:25:04.320Z,2.90
2022-11-14T03:27:33.546Z,2.80
2022-11-14T03:30:01.427Z,2.80
2022-11-14T03:32:29.254Z,2.70
2022-11-14T03:34:57.102Z,2.70
2022-11-14T03:37:24.991Z,2.90
2022-11-14T03:39:52.878Z,2.70
2022-11-14T03:42:20.709Z,2.60
2022-11-14T03:44:49.912Z,2.70
2022-11-14T03:47:17.763Z,2.70
2022-11-14T03:49:45.649Z,2.60
2022-11-14T03:52:13.522Z,2.70
2022-11-14T03:54:41.346Z,2.70
2022-11-14T03:57:09.166Z,2.70
2022-11-14T03:59:37.010Z,2.60
2022-11-14T04:02:06.181Z,2.50
2022-11-14T04:04:58.594Z,2.60
2022-11-14T04:07:26.419Z,2.50
2022-11-14T04:09:54.210Z,2.60
2022-11-14T04:12:21.995Z,2.60
2022-11-14T04:14:49.782Z,2.50
2022-11-14T04:17:18.914Z,2.60
2022-11-14T04:19:46.688Z,2.50
2022-11-14T04:22:14.468Z,2.50
2022-11-14T04:24:42.272Z,2.60
2022-11-14T04:27:10.078Z,2.50
2022-11-14T04:29:37.885Z,2.40
2022-11-14T04:32:06.040Z,2.40
2022-11-14T04:34:35.250Z,2.30
2022-11-14T04:37:03.097Z,2.40
2022-11-14T04:39:30.976Z,2.30
2022-11-14T04:41:58.815Z,2.30
2022-11-14T04:44:26.660Z,2.50
2022-11-14T04:46:54.755Z,2.20
2022-11-14T04:49:23.060Z,2.20
2022-11-14T04:51:52.274Z,2.10
2022-11-14T04:54:20.112Z,2.30
2022-11-14T04:56:48.004Z,2.30
2022-11-14T04:59:20.626Z,2.20
2022-11-14T05:01:49.134Z,2.20
2022-11-14T05:04:17.236Z,2.20
2022-11-14T05:06:45.159Z,2.10
2022-11-14T05:09:14.538Z,2.00
2022-11-14T05:11:42.384Z,2.00
2022-11-14T05:14:10.228Z,2.10
2022-11-14T05:16:38.091Z,2.20
2022-11-14T05:19:05.985Z,2.30
2022-11-14T05:21:33.852Z,2.30
2022-11-14T05:24:01.927Z,2.20
2022-11-14T05:26:31.160Z,2.20
2022-11-14T05:28:59.046Z,2.10
2022-11-14T05:31:26.947Z,2.10
2022-11-14T05:33:54.818Z,2.30
2022-11-14T05:36:22.686Z,2.30
2022-11-14T05:38:50.558Z,2.30
2022-11-14T05:41:20.405Z,2.40
2022-11-14T05:43:49.666Z,2.30
2022-11-14T05:46:17.614Z,2.30
2022-11-14T05:48:45.557Z,2.10
2022-11-14T05:51:13.991Z,2.10
2022-11-14T05:53:41.966Z,2.00
2022-11-14T05:56:11.620Z,2.10
2022-11-14T05:58:39.589Z,2.10
2022-11-14T06:01:09.586Z,2.10
2022-11-14T06:03:38.544Z,2.30
2022-11-14T06:06:08.098Z,2.10
2022-11-14T06:08:36.476Z,2.00
2022-11-14T06:11:04.745Z,2.00
2022-11-14T06:13:32.984Z,1.90
2022-11-14T06:16:02.018Z,2.00
2022-11-14T06:18:32.087Z,2.00
2022-11-14T06:21:01.107Z,2.10
2022-11-14T06:23:29.226Z,2.00
2022-11-14T06:26:00.876Z,2.00
2022-11-14T06:28:29.624Z,2.00
2022-11-14T06:30:59.766Z,2.00
2022-11-14T06:33:27.940Z,1.90
2022-11-14T06:36:00.622Z,2.00
2022-11-14T06:38:29.210Z,1.90
2022-11-14T06:41:03.673Z,2.00
2022-11-14T06:43:34.570Z,2.10
2022-11-14T06:46:02.580Z,2.10
2022-11-14T06:48:31.109Z,2.00
2022-11-14T06:51:01.037Z,2.20
2022-11-14T06:53:29.799Z,2.10
2022-11-14T06:55:58.236Z,2.00
2022-11-14T06:58:28.284Z,2.00
2022-11-14T07:00:56.496Z,2.20
2022-11-14T07:03:24.613Z,2.10
2022-11-14T07:05:52.688Z,2.10
2022-11-14T07:08:22.131Z,2.10
2022-11-14T07:10:50.272Z,2.40
2022-11-14T07:13:18.650Z,2.20
2022-11-14T07:15:51.991Z,2.40
2022-11-14T07:18:20.189Z,2.40
2022-11-14T07:20:48.475Z,2.50
2022-11-14T07:23:22.556Z,2.70
2022-11-14T07:25:52.699Z,4.00
2022-11-14T07:28:21.025Z,3.70
2022-11-14T07:30:49.644Z,3.80
2022-11-14T07:33:18.056Z,4.10
2022-11-14T07:35:46.057Z,4.40
2022-11-14T07:38:14.063Z,4.60
2022-11-14T07:40:42.035Z,4.60
2022-11-14T07:43:11.434Z,4.80
2022-11-14T07:45:39.590Z,5.00
2022-11-14T07:48:07.988Z,5.30
2022-11-14T07:50:36.073Z,6.20
2022-11-14T07:53:04.547Z,6.40
2022-11-14T07:55:32.861Z,6.40
2022-11-14T07:58:01.209Z,6.10
2022-11-14T08:00:30.837Z,6.10
2022-11-14T08:02:58.985Z,6.70
2022-11-14T08:05:26.983Z,6.80
2022-11-14T08:07:55.262Z,7.30
2022-11-14T08:10:23.527Z,6.90
2022-11-14T08:13:24.850Z,7.20
2022-11-14T08:15:48.631Z,7.50
2022-11-14T08:18:16.704Z,7.50
2022-11-14T08:20:45.088Z,7.90
2022-11-14T08:23:13.153Z,8.30
2022-11-14T08:25:41.169Z,9.50
2022-11-14T08:28:09.306Z,9.40
2022-11-14T08:30:37.415Z,9.20
2022-11-14T08:33:07.124Z,9.30
2022-11-14T08:35:35.585Z,9.10
2022-11-14T08:38:03.682Z,8.90
2022-11-14T08:40:31.991Z,9.50
2022-11-14T08:43:01.355Z,9.40
2022-11-14T08:45:29.785Z,9.40
2022-11-14T08:47:58.073Z,9.20
2022-11-14T08:50:27.680Z,9.30
2022-11-14T08:52:56.059Z,9.30
2022-11-14T08:55:24.438Z,10.00
2022-11-14T08:57:52.905Z,10.10
2022-11-14T09:00:21.779Z,10.20
2022-11-14T09:02:50.044Z,10.40
2022-11-14T09:05:18.534Z,10.30
2022-11-14T09:07:48.057Z,10.60
2022-11-14T09:10:16.661Z,10.90
2022-11-14T09:12:44.918Z,10.90
2022-11-14T09:15:13.177Z,11.10
2022-11-14T09:17:41.558Z,11.30
2022-11-14T09:20:10.688Z,11.50
2022-11-14T09:22:38.866Z,11.60
2022-11-14T09:25:10.345Z,11.80
2022-11-14T09:27:38.386Z,12.10
2022-11-14T09:30:07.560Z,12.20
2022-11-14T09:32:35.734Z,12.10
2022-11-14T09:35:03.831Z,12.30
2022-11-14T09:37:32.006Z,12.50
2022-11-14T09:40:00.161Z,12.50
2022-11-14T09:42:37.329Z,12.60
2022-11-14T09:45:06.610Z,11.90
2022-11-14T09:47:37.226Z,11.60
2022-11-14T09:50:07.930Z,11.90
2022-11-14T09:52:38.118Z,12.60
2022-11-14T09:55:12.998Z,12.80
2022-11-14T09:57:42.868Z,12.50
2022-11-14T10:00:14.975Z,12.30
2022-11-14T10:02:52.663Z,12.90
2022-11-14T10:05:56.091Z,13.30
2022-11-14T10:08:34.581Z,13.70
2022-11-14T10:11:05.598Z,14.10
2022-11-14T10:13:59.609Z,14.90
2022-11-14T10:16:31.769Z,14.80
2022-11-14T10:19:19.208Z,14.90
2022-11-14T10:22:01.676Z,15.30
2022-11-14T10:24:48.715Z,15.70
2022-11-14T10:27:19.241Z,15.70
2022-11-14T10:30:12.488Z,15.50
2022-11-14T10:32:56.900Z,15.20
2022-11-14T10:35:28.721Z,15.30
2022-11-14T10:38:00.757Z,15.60
2022-11-14T10:40:31.959Z,15.60
2022-11-14T10:43:04.951Z,15.50
2022-11-14T10:45:36.049Z,15.50
2022-11-14T10:48:04.766Z,15.80
2022-11-14T10:50:36.915Z,15.80
2022-11-14T10:53:06.244Z,15.60
2022-11-14T10:56:02.546Z,15.80
2022-11-14T10:58:22.851Z,16.20
2022-11-14T11:00:52.612Z,16.50
2022-11-14T11:03:20.800Z,16.20
2022-11-14T11:05:51.956Z,16.40
2022-11-14T11:08:43.816Z,16.70
2022-11-14T11:11:31.593Z,16.40
2022-11-14T11:14:00.885Z,16.50
2022-11-14T11:16:30.559Z,16.70
2022-11-14T11:19:15.005Z,16.80
2022-11-14T11:21:49.066Z,16.80
2022-11-14T11:24:33.784Z,17.00
2022-11-14T11:27:15.319Z,17.00
2022-11-14T11:29:43.401Z,17.10
2022-11-14T11:32:13.489Z,17.50
2022-11-14T11:38:30.035Z,17.10
2022-11-14T11:41:03.389Z,17.30
2022-11-14T11:43:52.488Z,17.40
2022-11-14T11:46:26.543Z,17.60
2022-11-14T11:48:58.713Z,17.20
2022-11-14T11:51:26.943Z,17.10
2022-11-14T11:53:59.249Z,17.10
2022-11-14T11:56:28.891Z,16.70
2022-11-14T11:58:58.605Z,16.50
2022-11-14T12:01:26.741Z,16.50
2022-11-14T12:03:56.630Z,16.60
2022-11-14T12:06:25.762Z,16.60
2022-11-14T12:09:01.966Z,16.80
2022-11-14T12:11:30.741Z,16.50
2022-11-14T12:14:29.133Z,16.80
2022-11-14T12:17:16.857Z,16.70
2022-11-14T12:20:23.620Z,16.70
2022-11-14T12:23:27.603Z,16.90
2022-11-14T12:26:13.533Z,16.90
2022-11-14T12:28:59.324Z,16.80
2022-11-14T12:31:27.480Z,16.90
2022-11-14T12:34:59.869Z,16.90
2022-11-14T12:37:32.525Z,16.70
2022-11-14T12:40:01.446Z,17.00
2022-11-14T12:42:29.386Z,17.20
2022-11-14T12:44:57.334Z,17.20
2022-11-14T12:47:25.889Z,17.00
2022-11-14T12:50:22.105Z,17.00
2022-11-14T12:52:53.966Z,17.00
2022-11-14T12:55:57.338Z,16.80
2022-11-14T12:58:52.536Z,16.80
2022-11-14T13:01:26.148Z,16.20
2022-11-14T13:04:01.435Z,16.20
2022-11-14T13:06:33.229Z,16.60
2022-11-14T13:09:36.234Z,16.20
2022-11-14T13:12:46.189Z,16.30
2022-11-14T13:15:48.797Z,16.20
2022-11-14T13:18:40.329Z,16.20
2022-11-14T13:21:34.815Z,16.30
2022-11-14T13:24:02.791Z,15.90
2022-11-14T13:26:42.508Z,15.70
2022-11-14T13:29:30.208Z,15.60
2022-11-14T13:31:58.188Z,15.50
2022-11-14T13:34:47.448Z,15.40
2022-11-14T13:37:23.948Z,15.50
2022-11-14T13:39:54.601Z,15.30
2022-11-14T13:42:32.173Z,15.00
2022-11-14T13:45:45.823Z,15.10
2022-11-14T13:48:34.665Z,14.90
2022-11-14T13:51:21.921Z,14.80
2022-11-14T13:53:52.623Z,14.60
2022-11-14T13:56:31.703Z,14.50
2022-11-14T13:59:33.033Z,14.30
2022-11-14T14:02:16.253Z,14.30
2022-11-14T14:04:51.319Z,14.10
2022-11-14T14:07:21.536Z,14.00
2022-11-14T14:09:51.668Z,14.10
2022-11-14T14:12:33.425Z,14.00
2022-11-14T14:15:09.724Z,13.90
2022-11-14T14:17:44.952Z,13.80
2022-11-14T14:20:19.876Z,13.80
2022-11-14T14:22:52.499Z,13.80
2022-11-14T14:25:22.549Z,13.70
2022-11-14T14:27:57.019Z,13.70
2022-11-14T14:30:26.412Z,13.60
2022-11-14T14:33:04.093Z,13.60
2022-11-14T14:35:38.809Z,13.50
2022-11-14T14:38:12.082Z,13.50
2022-11-14T14:40:41.307Z,13.40
2022-11-14T14:43:09.165Z,13.40
2022-11-14T14:45:47.080Z,13.30
2022-11-14T14:48:15.789Z,13.30
2022-11-14T14:50:50.172Z,13.10
2022-11-14T14:53:20.573Z,13.10
2022-11-14T14:55:53.529Z,13.00
2022-11-14T14:58:26.244Z,13.00
2022-11-14T15:00:57.311Z,12.90
2022-11-14T15:03:25.804Z,12.70
2022-11-14T15:05:59.423Z,12.60
2022-11-14T15:08:27.359Z,12.60
2022-11-14T15:10:56.055Z,12.30
2022-11-14T15:13:23.894Z,12.30
2022-11-14T15:15:51.835Z,12.20
2022-11-14T15:18:24.951Z,12.00
2022-11-14T15:21:08.132Z,11.70
2022-11-14T15:23:36.040Z,11.70
2022-11-14T15:26:04.104Z,11.70
2022-11-14T15:28:38.359Z,11.70
2022-11-14T15:31:17.902Z,11.40
2022-11-14T15:33:47.749Z,11.30
2022-11-14T15:36:17.740Z,11.20
2022-11-14T15:38:59.974Z,11.20
2022-11-14T15:41:33.272Z,11.30
2022-11-14T15:44:59.846Z,11.30
2022-11-14T15:47:29.076Z,11.00
2022-11-14T15:50:03.401Z,10.80
2022-11-14T15:52:33.789Z,10.70
2022-11-14T15:55:01.626Z,10.60
2022-11-14T15:57:30.604Z,10.50
2022-11-14T15:59:58.439Z,10.40
2022-11-14T16:02:28.257Z,10.30
2022-11-14T16:04:56.200Z,10.40
2022-11-14T16:07:25.583Z,10.40
2022-11-14T16:09:53.577Z,10.40
2022-11-14T16:12:21.442Z,10.20
2022-11-14T16:14:49.283Z,10.10
2022-11-14T16:17:20.213Z,10.00
2022-11-14T16:19:48.050Z,9.80
2022-11-14T16:22:18.139Z,9.60
2022-11-14T16:24:47.427Z,9.60
2022-11-14T16:27:15.422Z,9.50
2022-11-14T16:29:43.256Z,9.50
2022-11-14T16:32:11.621Z,9.50
2022-11-14T16:34:39.488Z,9.50
2022-11-14T16:37:07.330Z,9.40
2022-11-14T16:39:35.169Z,9.40
2022-11-14T16:42:04.495Z,9.20
2022-11-14T16:44:37.236Z,9.20
2022-11-14T16:47:08.930Z,9.20
2022-11-14T16:49:36.785Z,9.30
2022-11-14T16:52:08.471Z,9.20
2022-11-14T16:54:37.488Z,9.20
2022-11-14T16:57:06.692Z,9.20
2022-11-14T16:59:34.676Z,9.10
2022-11-14T17:02:02.943Z,9.00
2022-11-14T17:04:31.146Z,8.80
2022-11-14T17:06:59.165Z,8.70
2022-11-14T17:09:27.041Z,8.70
2022-11-14T17:11:54.916Z,8.60
2022-11-14T17:14:24.101Z,8.40
2022-11-14T17:16:52.008Z,8.30
2022-11-14T17:19:19.855Z,8.30
2022-11-14T17:21:47.755Z,8.20
2022-11-14T17:24:15.630Z,8.20
2022-11-14T17:26:43.672Z,8.20
2022-11-14T17:29:12.734Z,8.20
2022-11-14T17:31:46.716Z,8.10
2022-11-14T17:34:14.960Z,8.00
2022-11-14T17:36:42.880Z,7.90
2022-11-14T17:39:10.742Z,8.00
2022-11-14T17:41:38.924Z,8.00
2022-11-14T17:44:06.802Z,8.10
2022-11-14T17:46:35.073Z,8.00
2022-11-14T17:49:04.583Z,8.00
2022-11-14T17:51:32.472Z,8.00
2022-11-14T17:54:00.364Z,7.90
2022-11-14T17:56:28.206Z,7.80
2022-11-14T17:58:56.056Z,8.00
2022-11-14T18:01:24.862Z,7.90
2022-11-14T18:03:52.815Z,7.80
2022-11-14T18:06:22.627Z,7.80
2022-11-14T18:08:50.490Z,7.70
2022-11-14T18:11:19.791Z,7.80
2022-11-14T18:13:48.106Z,7.90
2022-11-14T18:16:19.449Z,8.00
2022-11-14T18:18:47.273Z,8.00
2022-11-14T18:21:16.174Z,7.80
2022-11-14T18:23:45.384Z,7.80
2022-11-14T18:26:13.595Z,7.80
2022-11-14T18:28:41.508Z,7.70
2022-11-14T18:31:10.806Z,7.80
2022-11-14T18:33:38.852Z,7.80
2022-11-14T18:36:12.067Z,7.80
2022-11-14T18:38:39.949Z,7.70
2022-11-14T18:41:10.271Z,7.40
2022-11-14T18:43:38.133Z,7.20
2022-11-14T18:46:07.777Z,7.10
2022-11-14T18:48:35.961Z,7.30
2022-11-14T18:51:04.008Z,7.50
2022-11-14T18:53:33.283Z,7.30
2022-11-14T18:56:04.629Z,7.30
2022-11-14T18:58:33.995Z,7.30
2022-11-14T19:01:10.090Z,7.30
2022-11-14T19:03:37.947Z,7.20
2022-11-14T19:06:06.068Z,7.10
2022-11-14T19:08:33.937Z,6.90
2022-11-14T19:11:02.496Z,6.80
2022-11-14T19:13:30.792Z,6.90
2022-11-14T19:16:03.405Z,6.90
2022-11-14T19:18:31.470Z,6.90
2022-11-14T19:20:59.645Z,6.70
2022-11-14T19:23:27.665Z,6.60
2022-11-14T19:25:59.512Z,6.50
2022-11-14T19:28:27.598Z,6.40
2022-11-14T19:30:55.498Z,6.50
2022-11-14T19:33:24.853Z,6.50
2022-11-14T19:35:52.772Z,6.40
2022-11-14T19:38:20.727Z,6.60
2022-11-14T19:40:51.003Z,6.40
2022-11-14T19:43:18.898Z,6.30
2022-11-14T19:45:46.766Z,6.20
2022-11-14T19:48:14.686Z,6.20
2022-11-14T19:50:43.990Z,6.20
2022-11-14T19:53:12.231Z,6.20
2022-11-14T19:55:40.106Z,6.50
2022-11-14T19:58:07.983Z,6.30
2022-11-14T20:00:38.876Z,6.00
2022-11-14T20:03:06.725Z,5.90
2022-11-14T20:05:34.569Z,5.90
2022-11-14T20:08:03.753Z,5.90
2022-11-14T20:10:31.661Z,5.90
2022-11-14T20:12:59.614Z,5.70
2022-11-14T20:15:27.454Z,5.40
2022-11-14T20:17:55.485Z,5.30
2022-11-14T20:20:23.515Z,5.50
2022-11-14T20:22:51.457Z,5.60
2022-11-14T20:25:20.712Z,5.50
2022-11-14T20:27:49.105Z,5.40
2022-11-14T20:30:17.073Z,5.40
2022-11-14T20:32:45.075Z,5.60
2022-11-14T20:35:12.941Z,5.30
2022-11-14T20:37:40.763Z,5.10
2022-11-14T20:40:09.575Z,5.20
2022-11-14T20:42:38.758Z,5.30
2022-11-14T20:45:07.329Z,5.40
2022-11-14T20:47:35.193Z,5.50
2022-11-14T20:50:03.214Z,5.20
2022-11-14T20:52:31.556Z,5.10
2022-11-14T20:55:00.446Z,5.00
2022-11-14T20:57:28.319Z,5.00
2022-11-14T20:59:57.522Z,5.00
2022-11-14T21:02:25.354Z,4.80
2022-11-14T21:04:53.220Z,4.80
2022-11-14T21:07:21.142Z,4.70
2022-11-14T21:09:49.013Z,4.80
2022-11-14T21:12:16.854Z,4.80
2022-11-14T21:14:44.692Z,4.70
2022-11-14T21:17:13.903Z,4.80
2022-11-14T21:19:41.750Z,4.80
2022-11-14T21:22:09.653Z,4.80
2022-11-14T21:24:39.801Z,5.00
2022-11-14T21:27:11.323Z,4.70
2022-11-14T21:29:39.187Z,4.60
2022-11-14T21:32:07.045Z,4.70
2022-11-14T21:34:36.349Z,4.40
2022-11-14T21:37:04.222Z,4.40
2022-11-14T21:39:32.117Z,4.30
2022-11-14T21:41:59.940Z,4.30
2022-11-14T21:44:27.854Z,4.30
2022-11-14T21:46:55.735Z,4.20
2022-11-14T21:49:23.610Z,4.20
2022-11-14T21:51:52.803Z,4.10
2022-11-14T21:54:20.678Z,4.10
2022-11-14T21:56:48.513Z,4.10
2022-11-14T21:59:18.751Z,4.60
2022-11-14T22:02:05.254Z,4.40
2022-11-14T22:04:33.346Z,4.60
2022-11-14T22:07:03.068Z,4.30
2022-11-14T22:09:31.039Z,4.40
2022-11-14T22:11:59.082Z,4.30
2022-11-14T22:14:27.003Z,4.10
2022-11-14T22:16:54.857Z,4.20
2022-11-14T22:19:22.718Z,4.10
2022-11-14T22:21:50.568Z,4.20
2022-11-14T22:24:19.850Z,4.30
2022-11-14T22:26:47.701Z,4.70
2022-11-14T22:29:15.554Z,4.30
2022-11-14T22:31:43.469Z,4.20
2022-11-14T22:34:11.943Z,3.90
2022-11-14T22:36:39.784Z,3.80
2022-11-14T22:39:07.625Z,3.90
2022-11-14T22:41:36.816Z,3.80
2022-11-14T22:44:04.710Z,3.60
2022-11-14T22:46:32.564Z,3.60
2022-11-14T22:49:02.922Z,3.60
2022-11-14T22:51:31.684Z,3.70
2022-11-14T22:53:59.587Z,3.70
2022-11-14T22:56:28.355Z,3.70
2022-11-14T22:58:57.712Z,3.60
2022-11-14T23:01:26.664Z,3.60
2022-11-14T23:03:55.149Z,3.50
2022-11-14T23:06:23.147Z,3.50
2022-11-14T23:08:51.043Z,3.60
2022-11-14T23:11:20.147Z,3.70
2022-11-14T23:13:49.018Z,4.00
2022-11-14T23:16:19.749Z,4.10
2022-11-14T23:18:47.706Z,3.90
2022-11-14T23:21:16.898Z,3.90
2022-11-14T23:23:44.714Z,4.00
2022-11-14T23:26:13.504Z,3.70
2022-11-14T23:28:41.366Z,3.60
2022-11-14T23:31:09.385Z,3.40
2022-11-14T23:33:38.663Z,3.50
2022-11-14T23:36:06.733Z,3.40
2022-11-14T23:38:34.613Z,3.30
2022-11-14T23:41:02.807Z,3.50
2022-11-14T23:43:31.470Z,3.30
2022-11-14T23:45:59.704Z,3.30
2022-11-14T23:48:27.546Z,3.00
2022-11-14T23:50:57.357Z,3.20
2022-11-14T23:53:25.303Z,3.00
2022-11-14T23:55:53.956Z,2.90
2022-11-14T23:58:21.898Z,3.20
